Time;durP1;ratioP1;P1;durP2;ratioP2;P2;SDS_P1;SDS_P2;PMS_P1;PMS_P2;Temp;Humidity;BMP_temperature;BMP_pressure;BME280_temperature;BME280_humidity;BME280_pressure;Samples;Min_cycle;Max_cycle;Signal;HPM_P1;HPM_P2
2022/01/12 00:01:14;;;;;;;24.32;12.85;;;;;;;-2.68;70.70;102292.34;1829325;78;27289;-77
2022/01/12 00:03:45;;;;;;;23.67;12.55;;;;;;;-2.70;70.70;102293.84;1829245;78;25567;-77
2022/01/12 00:06:12;;;;;;;30.48;14.23;;;;;;;-2.72;70.90;102290.54;1829309;78;25441;-77
2022/01/12 00:08:40;;;;;;;27.48;13.25;;;;;;;-2.73;70.92;102294.68;1829217;78;25623;-76
2022/01/12 00:11:07;;;;;;;26.73;13.35;;;;;;;-2.75;71.04;102288.73;1829292;78;25364;-76
2022/01/12 00:13:34;;;;;;;30.57;14.87;;;;;;;-2.77;71.24;102282.78;1829251;78;27296;-78
2022/01/12 00:16:02;;;;;;;27.55;14.68;;;;;;;-2.78;71.23;102284.59;1829193;78;25571;-77
2022/01/12 00:18:32;;;;;;;27.80;13.78;;;;;;;-2.78;71.21;102275.83;1829257;78;25345;-77
2022/01/12 00:20:58;;;;;;;20.35;9.63;;;;;;;-2.79;71.13;102278.98;1829385;78;25603;-77
2022/01/12 00:23:26;;;;;;;27.58;13.95;;;;;;;-2.79;71.23;102282.11;1848765;77;25417;-76
2022/01/12 00:34:00;;;;;;;28.30;13.68;;;;;;;-2.82;71.21;102274.02;1854161;77;25687;-77
2022/01/12 00:36:30;;;;;;;19.85;10.98;;;;;;;-2.83;71.38;102281.15;1854788;77;25418;-76
2022/01/12 00:38:57;;;;;;;21.70;11.87;;;;;;;-2.83;71.15;102280.30;1854608;77;27409;-77
2022/01/12 00:41:24;;;;;;;22.55;11.75;;;;;;;-2.83;71.13;102282.47;1854212;77;25760;-77
2022/01/12 00:43:57;;;;;;;24.67;14.15;;;;;;;-2.83;71.16;102280.30;1854343;77;25371;-76
2022/01/12 00:46:19;;;;;;;22.80;11.90;;;;;;;-2.81;71.17;102283.59;1854674;76;26113;-76
2022/01/12 00:48:45;;;;;;;21.15;10.93;;;;;;;-2.81;71.18;102282.27;1854467;77;25405;-76
2022/01/12 00:51:12;;;;;;;19.23;11.63;;;;;;;-2.79;71.15;102275.48;1854437;77;28039;-76
2022/01/12 00:53:40;;;;;;;22.20;11.45;;;;;;;-2.79;71.11;102277.66;1854279;77;25344;-76
2022/01/12 00:56:07;;;;;;;19.80;10.23;;;;;;;-2.78;71.08;102274.50;1854304;77;25354;-76
2022/01/12 00:58:35;;;;;;;17.12;11.22;;;;;;;-2.79;70.99;102271.03;1854260;77;25675;-76
2022/01/12 01:01:02;;;;;;;20.25;10.70;;;;;;;-2.79;70.90;102277.66;1854364;77;25512;-77
2022/01/12 01:03:30;;;;;;;18.15;9.75;;;;;;;-2.79;70.84;102284.28;1854368;76;27948;-75
2022/01/12 01:05:58;;;;;;;18.67;9.35;;;;;;;-2.79;70.99;102273.69;1854300;77;25363;-76
2022/01/12 01:08:25;;;;;;;21.45;9.95;;;;;;;-2.78;70.91;102279.29;1854337;76;25507;-76
2022/01/12 01:10:53;;;;;;;17.75;9.28;;;;;;;-2.77;70.79;102281.46;1854302;77;25624;-75
2022/01/12 01:13:25;;;;;;;19.85;11.08;;;;;;;-2.76;70.75;102284.42;1854415;77;25329;-76
2022/01/12 01:26:43;;;;;;;21.37;11.43;;;;;;;-2.78;70.76;102281.94;1854421;77;25518;-75
2022/01/12 01:29:11;;;;;;;21.60;11.28;;;;;;;-2.76;70.82;102272.50;1853221;76;27938;-76
2022/01/12 01:31:38;;;;;;;25.32;10.70;;;;;;;-2.78;70.80;102280.61;1845345;77;25569;-77
2022/01/12 01:34:09;;;;;;;18.35;10.70;;;;;;;-2.77;70.79;102278.81;1845409;77;25274;-76
2022/01/12 01:36:41;;;;;;;17.77;10.50;;;;;;;-2.78;70.76;102273.99;1833999;77;26213;-76
2022/01/12 01:39:12;;;;;;;19.87;10.60;;;;;;;-2.77;70.69;102276.16;1844924;76;25680;-76
2022/01/12 01:41:41;;;;;;;21.85;10.32;;;;;;;-2.78;70.54;102279.80;1845377;77;27828;-74
2022/01/12 01:44:32;;;;;;;20.90;10.75;;;;;;;-2.82;70.62;102276.67;1845397;76;25577;-76
2022/01/12 01:53:19;;;;;;;19.67;10.85;;;;;;;-2.82;70.50;102275.34;1845363;77;25634;-76
2022/01/12 01:54:52;;;;;;;22.58;11.05;;;;;;;-2.87;70.37;102271.88;1845498;77;27402;-76
2022/01/12 01:57:18;;;;;;;20.52;10.75;;;;;;;-2.89;70.38;102279.17;1833808;77;25728;-76
2022/01/12 01:59:46;;;;;;;19.75;10.38;;;;;;;-2.91;70.54;102273.23;1845472;77;25550;-76
2022/01/12 02:02:13;;;;;;;22.60;11.48;;;;;;;-2.93;70.36;102269.89;1846458;77;25592;-76
2022/01/12 02:04:40;;;;;;;19.70;10.10;;;;;;;-2.95;70.25;102268.44;1846849;76;25597;-76
2022/01/12 02:07:07;;;;;;;21.05;10.32;;;;;;;-3.03;70.07;102263.50;1847712;77;27395;-76
2022/01/12 02:09:37;;;;;;;22.05;11.00;;;;;;;-3.07;69.92;102266.14;1846027;77;25370;-76
2022/01/12 02:12:13;;;;;;;18.95;9.73;;;;;;;-3.14;69.75;102272.30;1819865;77;25471;-76
2022/01/12 02:14:42;;;;;;;21.07;10.93;;;;;;;-3.21;69.81;102270.82;1813579;77;25538;-77
2022/01/12 02:17:20;;;;;;;19.77;9.73;;;;;;;-3.31;69.84;102272.83;1845555;77;25420;-77
2022/01/12 02:36:13;;;;;;;25.50;12.55;;;;;;;-4.11;70.15;102272.16;1845432;77;25610;-77
2022/01/12 02:41:24;;;;;;;27.05;13.15;;;;;;;-4.33;70.62;102265.99;1845488;77;25665;-76
2022/01/12 02:54:50;;;;;;;26.82;16.23;;;;;;;-4.89;71.07;102260.85;1845614;77;26278;-75
2022/01/12 02:57:17;;;;;;;33.55;19.48;;;;;;;-4.96;71.31;102261.97;1845595;77;25447;-75
2022/01/12 03:00:04;;;;;;;39.15;20.00;;;;;;;-5.03;71.39;102259.63;1845600;77;28303;-75
2022/01/12 03:02:38;;;;;;;33.85;20.62;;;;;;;-5.13;71.40;102257.10;1847481;76;25221;-76
2022/01/12 03:05:33;;;;;;;32.85;17.70;;;;;;;-5.21;71.59;102246.99;1846050;76;25519;-75
2022/01/12 03:07:52;;;;;;;31.47;17.00;;;;;;;-5.30;71.62;102245.62;1834432;77;25626;-75
2022/01/12 03:10:19;;;;;;;31.45;16.40;;;;;;;-5.41;71.63;102241.09;1845728;77;25354;-75
2022/01/12 03:12:46;;;;;;;25.23;13.60;;;;;;;-5.53;71.72;102244.02;1845673;76;27140;-76
2022/01/12 03:15:12;;;;;;;25.43;13.88;;;;;;;-5.64;71.87;102247.70;1845817;76;25515;-76
2022/01/12 03:17:39;;;;;;;26.33;14.20;;;;;;;-5.72;71.89;102241.55;1845809;77;25598;-76
2022/01/12 03:20:08;;;;;;;26.12;13.45;;;;;;;-5.80;72.06;102249.42;1845664;76;25718;-75
2022/01/12 03:22:36;;;;;;;26.85;14.85;;;;;;;-5.88;72.24;102254.93;1862533;76;25523;-75
2022/01/12 03:25:04;;;;;;;34.45;18.32;;;;;;;-5.94;72.55;102259.52;1845758;77;27298;-75
2022/01/12 03:27:31;;;;;;;33.23;18.30;;;;;;;-5.98;72.69;102267.39;1834130;77;25472;-75
2022/01/12 03:29:57;;;;;;;32.58;17.40;;;;;;;-6.04;72.71;102268.84;1845526;76;25433;-75
2022/01/12 03:32:34;;;;;;;31.45;17.95;;;;;;;-6.10;72.58;102270.73;1845604;77;25662;-76
2022/01/12 03:35:05;;;;;;;29.65;16.90;;;;;;;-6.17;72.79;102270.19;1845426;77;25550;-76
2022/01/12 03:37:42;;;;;;;29.07;16.55;;;;;;;-6.21;72.93;102267.84;1847080;76;27367;-76
2022/01/12 03:40:10;;;;;;;32.25;16.93;;;;;;;-6.24;73.15;102274.73;1845941;76;25670;-76
2022/01/12 03:42:38;;;;;;;28.52;15.58;;;;;;;-6.29;73.35;102276.98;1818594;77;25457;-75
2022/01/12 03:45:06;;;;;;;31.27;16.75;;;;;;;-6.29;73.79;102271.71;1845696;76;26242;-75
2022/01/12 03:47:32;;;;;;;29.02;16.40;;;;;;;-6.26;74.23;102278.00;1834489;77;25625;-76
2022/01/12 03:49:58;;;;;;;29.60;16.27;;;;;;;-6.21;74.56;102277.56;1845568;76;27358;-76
2022/01/12 03:52:25;;;;;;;25.12;14.28;;;;;;;-6.16;74.51;102270.05;1845418;76;25348;-76
2022/01/12 03:54:51;;;;;;;24.50;13.72;;;;;;;-6.13;74.44;102269.75;1845448;77;25378;-76
2022/01/12 03:57:18;;;;;;;27.90;14.07;;;;;;;-6.12;74.67;102260.03;1845475;76;25561;-76
2022/01/12 03:59:45;;;;;;;24.40;11.83;;;;;;;-6.10;74.77;102266.79;1845539;76;25581;-76
2022/01/12 04:02:11;;;;;;;20.00;10.68;;;;;;;-6.07;74.83;102262.55;1845485;77;27999;-76
2022/01/12 04:04:53;;;;;;;24.57;11.15;;;;;;;-6.06;74.38;102265.99;1845509;76;25610;-76
2022/01/12 04:09:50;;;;;;;22.42;10.65;;;;;;;-6.08;74.23;102254.78;1847489;77;25834;-76
2022/01/12 04:12:17;;;;;;;25.02;11.48;;;;;;;-6.11;73.96;102257.25;1845510;76;25428;-76
2022/01/12 04:14:44;;;;;;;21.50;11.03;;;;;;;-6.15;73.86;102254.55;1845438;77;28017;-76
2022/01/12 04:17:10;;;;;;;19.98;11.03;;;;;;;-6.18;73.99;102254.03;1845353;76;25353;-76
2022/01/12 04:19:37;;;;;;;22.40;11.68;;;;;;;-6.18;74.19;102256.66;1845410;77;25356;-76
2022/01/12 04:23:16;;;;;;;21.70;10.75;;;;;;;-6.21;74.07;102256.49;1845401;76;25727;-77
2022/01/12 04:24:36;;;;;;;22.27;12.45;;;;;;;-6.24;74.17;102266.82;1830571;77;25575;-77
2022/01/12 04:27:03;;;;;;;26.00;11.15;;;;;;;-6.26;74.46;102264.83;1845473;77;26935;-77
2022/01/12 04:29:30;;;;;;;26.02;11.73;;;;;;;-6.22;74.68;102254.83;1833892;77;25541;-77
2022/01/12 04:31:56;;;;;;;21.90;10.63;;;;;;;-6.17;74.82;102255.70;1845400;76;25584;-77
2022/01/12 04:34:23;;;;;;;24.57;12.53;;;;;;;-6.14;74.91;102264.63;1833917;77;25715;-77
2022/01/12 04:36:49;;;;;;;22.27;11.85;;;;;;;-6.12;75.22;102270.07;1845431;77;25544;-77
2022/01/12 04:39:16;;;;;;;29.20;11.53;;;;;;;-6.08;75.43;102270.13;1845383;77;27844;-77
2022/01/12 04:41:43;;;;;;;23.95;11.38;;;;;;;-6.03;75.54;102274.45;1833808;77;25607;-77
2022/01/12 04:44:11;;;;;;;22.62;12.25;;;;;;;-5.99;75.67;102280.25;1845444;77;25498;-77
2022/01/12 04:47:02;;;;;;;25.30;12.37;;;;;;;-5.93;75.84;102277.46;1845583;76;25502;-77
2022/01/12 04:51:47;;;;;;;22.75;11.40;;;;;;;-5.80;75.74;102266.55;1845548;76;28027;-77
2022/01/12 04:54:13;;;;;;;25.70;11.65;;;;;;;-5.75;75.68;102263.78;1845790;77;25598;-76
2022/01/12 04:56:40;;;;;;;24.25;12.45;;;;;;;-5.70;75.64;102264.66;1845939;76;25693;-76
2022/01/12 04:59:06;;;;;;;24.90;12.30;;;;;;;-5.66;75.56;102263.35;1845673;77;25683;-76
2022/01/12 05:01:36;;;;;;;23.40;10.82;;;;;;;-5.62;75.45;102258.10;1845700;76;25555;-76
2022/01/12 05:07:22;;;;;;;26.42;12.13;;;;;;;-5.53;75.53;102251.10;1845323;77;25434;-77
2022/01/12 05:09:47;;;;;;;23.77;12.15;;;;;;;-5.52;75.33;102244.83;1847988;76;25491;-76
2022/01/12 05:14:50;;;;;;;25.45;12.05;;;;;;;-5.52;75.50;102252.23;1845432;77;25573;-76
2022/01/12 05:17:11;;;;;;;26.25;11.88;;;;;;;-5.50;75.59;102254.73;1846508;76;27408;-76
2022/01/12 05:19:38;;;;;;;31.10;13.53;;;;;;;-5.51;75.43;102254.41;1845268;77;25622;-76
2022/01/12 05:22:05;;;;;;;24.12;12.45;;;;;;;-5.50;75.60;102254.73;1845381;76;25377;-76
2022/01/12 05:24:31;;;;;;;27.25;13.03;;;;;;;-5.50;75.53;102256.05;1845015;77;25504;-77
2022/01/12 05:26:58;;;;;;;26.07;12.00;;;;;;;-5.50;75.56;102261.31;1845353;77;25547;-77
2022/01/12 05:29:24;;;;;;;23.62;12.43;;;;;;;-5.50;75.64;102264.80;1845345;77;27294;-77
2022/01/12 05:31:51;;;;;;;26.17;12.40;;;;;;;-5.48;75.58;102258.06;1845299;76;25497;-78
2022/01/12 05:34:18;;;;;;;25.75;11.68;;;;;;;-5.48;75.54;102254.92;1845315;77;25481;-77
2022/01/12 05:36:44;;;;;;;27.73;14.23;;;;;;;-5.45;75.60;102255.09;1845261;77;26159;-77
2022/01/12 05:39:11;;;;;;;22.05;12.35;;;;;;;-5.46;75.38;102258.23;1845384;77;25502;-78
2022/01/12 05:41:39;;;;;;;29.05;13.72;;;;;;;-5.46;75.34;102252.13;1845392;77;27271;-77
2022/01/12 05:44:07;;;;;;;25.95;13.48;;;;;;;-5.47;75.24;102253.92;1845357;77;25349;-78
2022/01/12 05:46:36;;;;;;;24.72;12.73;;;;;;;-5.45;75.14;102252.45;1845386;77;25551;-77
2022/01/12 05:51:47;;;;;;;26.45;12.98;;;;;;;-5.46;75.25;102242.91;1845449;77;25601;-78
2022/01/12 05:54:14;;;;;;;28.60;13.48;;;;;;;-5.47;75.22;102251.28;1845334;77;27551;-78
2022/01/12 05:56:41;;;;;;;24.87;13.65;;;;;;;-5.47;75.35;102246.51;1845272;77;25422;-78
2022/01/12 05:59:07;;;;;;;28.60;13.88;;;;;;;-5.48;75.36;102240.42;1845402;77;25361;-78
2022/01/12 06:01:34;;;;;;;28.17;14.07;;;;;;;-5.49;75.40;102241.89;1845705;77;25626;-78
2022/01/12 06:04:00;;;;;;;26.40;13.08;;;;;;;-5.49;75.46;102232.66;1834392;77;25171;-77
2022/01/12 06:06:27;;;;;;;29.48;13.10;;;;;;;-5.48;75.44;102235.64;1845640;77;27268;-78
2022/01/12 06:08:54;;;;;;;26.15;13.83;;;;;;;-5.47;75.26;102239.92;1845402;76;25542;-73
2022/01/12 06:11:22;;;;;;;26.75;14.45;;;;;;;-5.50;75.11;102233.16;1862254;76;25302;-74
2022/01/12 06:13:50;;;;;;;27.90;14.40;;;;;;;-5.50;75.02;102237.58;1845345;76;26365;-73
2022/01/12 06:16:17;;;;;;;35.90;15.13;;;;;;;-5.52;75.00;102242.19;1845424;77;25509;-74
2022/01/12 06:18:43;;;;;;;31.00;15.68;;;;;;;-5.52;75.12;102240.88;1845329;77;27297;-73
2022/01/12 06:21:10;;;;;;;27.73;13.93;;;;;;;-5.53;75.26;102236.09;1845237;77;25603;-73
2022/01/12 06:23:36;;;;;;;29.90;14.50;;;;;;;-5.53;75.23;102245.83;1845272;77;25417;-74
2022/01/12 06:26:03;;;;;;;28.02;14.50;;;;;;;-5.54;75.45;102248.94;1845332;77;26303;-74
2022/01/12 06:31:10;;;;;;;34.13;15.78;;;;;;;-5.57;75.62;102250.55;1845193;76;27906;-74
2022/01/12 06:33:47;;;;;;;31.10;14.50;;;;;;;-5.53;75.73;102250.60;1845219;77;25436;-74
2022/01/12 06:36:17;;;;;;;33.25;14.60;;;;;;;-5.53;75.95;102259.83;1845404;76;25610;-74
2022/01/12 06:38:45;;;;;;;29.77;14.87;;;;;;;-5.53;76.08;102256.38;1845289;77;26160;-74
2022/01/12 06:41:14;;;;;;;35.98;15.05;;;;;;;-5.50;76.25;102267.91;1845093;77;25579;-73
2022/01/12 06:43:42;;;;;;;32.65;15.13;;;;;;;-5.47;76.35;102267.11;1845433;77;27315;-74
2022/01/12 06:46:09;;;;;;;26.87;13.62;;;;;;;-5.45;76.58;102266.48;1845250;77;25373;-73
2022/01/12 06:48:35;;;;;;;27.40;15.08;;;;;;;-5.41;76.34;102260.87;1845311;76;25378;-74
2022/01/12 06:51:03;;;;;;;35.85;15.13;;;;;;;-5.40;76.57;102263.86;1845278;77;25616;-74
2022/01/12 06:53:32;;;;;;;31.65;15.70;;;;;;;-5.35;76.77;102269.00;1862110;76;25608;-74
2022/01/12 06:55:59;;;;;;;30.12;16.15;;;;;;;-5.32;76.86;102258.15;1845510;76;28031;-74
2022/01/12 06:58:26;;;;;;;28.30;15.25;;;;;;;-5.29;76.93;102267.08;1845247;77;25515;-75
2022/01/12 07:00:52;;;;;;;30.32;15.85;;;;;;;-5.23;77.55;102276.17;1845545;76;25408;-75
2022/01/12 07:03:18;;;;;;;33.18;16.02;;;;;;;-5.18;77.93;102271.25;1845440;76;25615;-75
2022/01/12 07:05:46;;;;;;;34.33;15.65;;;;;;;-5.12;78.29;102278.56;1845506;77;25505;-74
2022/01/12 07:08:12;;;;;;;31.00;15.90;;;;;;;-5.03;78.40;102286.53;1845513;77;27357;-74
2022/01/12 07:10:39;;;;;;;32.00;15.03;;;;;;;-4.98;78.08;102288.20;1845519;77;25532;-75
2022/01/12 07:13:10;;;;;;;36.93;15.53;;;;;;;-4.95;77.83;102282.12;1845520;76;25500;-75
2022/01/12 07:15:34;;;;;;;34.70;15.68;;;;;;;-4.92;77.59;102280.95;1845801;76;25626;-75
2022/01/12 07:18:04;;;;;;;34.75;17.05;;;;;;;-4.88;77.72;102277.03;1845587;77;25520;-75
2022/01/12 07:20:31;;;;;;;32.28;16.15;;;;;;;-4.85;77.61;102282.01;1845404;77;27290;-75
2022/01/12 07:22:58;;;;;;;35.85;15.75;;;;;;;-4.84;77.49;102278.87;1845405;77;25548;-75
2022/01/12 07:25:25;;;;;;;32.73;15.25;;;;;;;-4.79;77.27;102281.86;1845490;77;25354;-75
2022/01/12 07:27:52;;;;;;;27.25;15.05;;;;;;;-4.80;77.25;102273.59;1845446;76;25604;-75
2022/01/12 07:30:21;;;;;;;30.88;15.08;;;;;;;-4.77;77.30;102285.98;1845483;77;25369;-74
2022/01/12 07:32:47;;;;;;;31.05;17.05;;;;;;;-4.75;77.47;102289.31;1852346;76;27295;-74
2022/01/12 07:35:14;;;;;;;39.05;18.75;;;;;;;-4.70;77.54;102293.63;1854307;77;25312;-74
2022/01/12 07:37:40;;;;;;;37.00;16.55;;;;;;;-4.65;77.40;102298.91;1854390;76;25421;-75
2022/01/12 07:40:08;;;;;;;37.30;16.93;;;;;;;-4.63;77.32;102300.90;1854373;77;25665;-75
2022/01/12 07:42:35;;;;;;;35.05;17.90;;;;;;;-4.63;77.42;102295.14;1854461;76;25372;-74
2022/01/12 07:45:01;;;;;;;37.48;17.15;;;;;;;-4.59;77.24;102301.75;1854428;76;28122;-74
2022/01/12 07:47:30;;;;;;;33.45;16.17;;;;;;;-4.58;77.58;102303.42;1833180;77;25514;-75
2022/01/12 07:49:59;;;;;;;48.90;22.52;;;;;;;-4.51;77.74;102302.29;1854571;76;25406;-75
2022/01/12 07:52:27;;;;;;;41.57;19.80;;;;;;;-4.47;77.85;102304.94;1854611;77;25664;-75
2022/01/12 07:54:54;;;;;;;42.98;20.32;;;;;;;-4.40;78.09;102305.13;1854412;77;25584;-74
2022/01/12 07:57:20;;;;;;;46.65;23.40;;;;;;;-4.34;78.07;102299.21;1854363;77;27485;-75
2022/01/12 07:59:47;;;;;;;42.78;21.62;;;;;;;-4.30;77.94;102295.25;1854286;77;25357;-75
2022/01/12 08:02:14;;;;;;;38.28;18.77;;;;;;;-4.27;77.68;102292.29;1854415;77;25418;-73
2022/01/12 08:04:41;;;;;;;41.50;20.50;;;;;;;-4.25;77.41;102288.16;1854372;77;26164;-74
2022/01/12 08:07:10;;;;;;;45.28;20.48;;;;;;;-4.23;77.47;102291.47;1854451;77;25354;-75
2022/01/12 08:09:38;;;;;;;40.30;20.02;;;;;;;-4.19;77.79;102287.50;1854609;76;27298;-74
2022/01/12 08:12:08;;;;;;;46.48;20.15;;;;;;;-4.15;78.01;102275.63;1854475;77;25668;-74
2022/01/12 08:14:35;;;;;;;43.40;20.48;;;;;;;-4.07;77.68;102286.70;1826545;77;25401;-74
2022/01/12 08:17:02;;;;;;;42.05;19.92;;;;;;;-4.01;77.87;102295.31;1854772;77;25599;-74
2022/01/12 08:19:29;;;;;;;44.33;20.40;;;;;;;-3.97;77.64;102293.51;1833140;77;25625;-75
2022/01/12 08:21:56;;;;;;;37.28;19.73;;;;;;;-3.86;78.19;102295.00;1854330;77;27301;-74
2022/01/12 08:24:23;;;;;;;45.12;19.25;;;;;;;-3.79;78.01;102286.73;1854285;77;25574;-75
2022/01/12 08:26:49;;;;;;;38.25;19.35;;;;;;;-3.68;78.32;102284.25;1854360;77;25509;-74
2022/01/12 08:29:16;;;;;;;39.78;19.90;;;;;;;-3.61;77.87;102279.97;1854333;77;25618;-74
2022/01/12 08:31:44;;;;;;;42.40;21.68;;;;;;;-3.51;77.75;102281.10;1852813;76;25387;-74
2022/01/12 08:34:12;;;;;;;42.60;20.75;;;;;;;-3.45;77.99;102273.83;1845416;77;27375;-74
2022/01/12 08:36:41;;;;;;;44.45;20.62;;;;;;;-3.33;77.97;102276.14;1845354;77;25516;-73
2022/01/12 08:39:08;;;;;;;37.85;18.82;;;;;;;-3.26;77.84;102278.44;1834196;77;25586;-74
2022/01/12 08:41:36;;;;;;;39.65;19.87;;;;;;;-3.17;77.79;102270.80;1845189;77;25812;-74
2022/01/12 08:44:08;;;;;;;42.98;20.70;;;;;;;-3.07;77.39;102271.94;1845492;77;25533;-75
2022/01/12 08:46:38;;;;;;;43.42;20.25;;;;;;;-3.01;77.72;102269.44;1834488;77;27299;-74
2022/01/12 08:49:06;;;;;;;39.98;20.32;;;;;;;-2.85;77.50;102276.50;1845502;76;25515;-74
2022/01/12 08:51:33;;;;;;;39.67;19.62;;;;;;;-2.70;78.28;102267.84;1845440;77;25566;-75
2022/01/12 08:54:00;;;;;;;37.33;20.45;;;;;;;-2.48;78.67;102270.23;1848883;75;25727;-75
2022/01/12 08:56:27;;;;;;;42.60;21.82;;;;;;;-2.35;77.95;102271.83;1881369;75;25541;-74
2022/01/12 08:58:53;;;;;;;44.30;21.20;;;;;;;-2.27;77.28;102274.40;1844984;77;28013;-75
2022/01/12 09:01:20;;;;;;;44.80;22.10;;;;;;;-2.19;77.35;102272.73;1844884;77;25754;-75
2022/01/12 09:03:48;;;;;;;45.23;23.15;;;;;;;-2.13;77.02;102281.28;1845044;77;25644;-75
2022/01/12 09:06:15;;;;;;;47.45;23.05;;;;;;;-2.07;76.69;102281.92;1833473;77;26147;-75
2022/01/12 09:08:44;;;;;;;51.65;25.40;;;;;;;-2.02;76.47;102282.22;1833558;77;25403;-75
2022/01/12 09:11:12;;;;;;;54.67;25.15;;;;;;;-2.03;76.25;102279.23;1845113;77;28337;-74
2022/01/12 09:13:39;;;;;;;49.10;23.62;;;;;;;-1.97;76.13;102277.72;1844894;77;25735;-74
2022/01/12 09:16:06;;;;;;;39.18;21.65;;;;;;;-1.95;75.96;102274.38;1845001;77;25611;-74
2022/01/12 09:18:39;;;;;;;51.00;24.05;;;;;;;-1.93;76.00;102280.33;1845186;77;25632;-74
2022/01/12 09:21:07;;;;;;;43.38;22.67;;;;;;;-1.90;75.92;102274.16;1845063;77;25511;-74
2022/01/12 09:23:34;;;;;;;52.48;22.65;;;;;;;-1.85;75.87;102267.52;1845097;77;27387;-74
2022/01/12 09:26:02;;;;;;;56.35;26.40;;;;;;;-1.82;75.79;102267.14;1844901;76;25889;-74
2022/01/12 09:28:31;;;;;;;49.10;24.37;;;;;;;-1.79;75.81;102249.55;1845266;76;25642;-73
2022/01/12 09:30:58;;;;;;;50.28;24.77;;;;;;;-1.78;75.09;102248.55;1845309;77;26210;-73
2022/01/12 09:33:24;;;;;;;67.30;25.92;;;;;;;-1.82;74.89;102244.59;1845220;76;25403;-74
2022/01/12 09:35:53;;;;;;;52.43;25.02;;;;;;;-1.84;74.84;102242.63;1845281;77;27994;-74
2022/01/12 09:38:22;;;;;;;55.93;26.40;;;;;;;-1.84;74.94;102247.42;1845213;77;25618;-74
2022/01/12 09:40:54;;;;;;;50.23;26.10;;;;;;;-1.80;74.92;102248.73;1845020;77;25609;-74
2022/01/12 09:43:28;;;;;;;63.42;26.17;;;;;;;-1.78;75.16;102239.27;1844877;77;26273;-74
2022/01/12 09:45:55;;;;;;;61.90;26.57;;;;;;;-1.74;74.98;102241.88;1845031;77;25725;-75
2022/01/12 09:48:26;;;;;;;61.10;26.93;;;;;;;-1.71;75.09;102242.34;1844957;77;27468;-75
2022/01/12 09:50:56;;;;;;;56.08;27.00;;;;;;;-1.66;75.29;102239.16;1845031;77;25226;-74
2022/01/12 09:53:22;;;;;;;64.87;28.83;;;;;;;-1.61;74.89;102231.48;1844975;76;25582;-74
2022/01/12 09:55:49;;;;;;;54.23;25.90;;;;;;;-1.59;74.73;102229.97;1845061;77;26671;-74
2022/01/12 09:58:16;;;;;;;61.23;29.20;;;;;;;-1.57;74.65;102226.63;1844945;77;25658;-73
2022/01/12 10:00:43;;;;;;;64.17;28.00;;;;;;;-1.55;74.56;102223.29;1845007;77;27960;-73
2022/01/12 10:03:13;;;;;;;61.20;28.83;;;;;;;-1.52;74.50;102233.03;1833263;77;25843;-73
2022/01/12 10:05:40;;;;;;;;;;;;;;;-1.51;74.59;102232.56;1836300;77;25447;-74
2022/01/12 10:08:14;;;;;;;62.20;29.02;;;;;;;-1.42;74.84;102242.08;1844986;76;26369;-74
2022/01/12 10:11:05;;;;;;;67.00;29.37;;;;;;;-1.39;74.56;102235.08;1845016;77;25657;-73
2022/01/12 10:13:32;;;;;;;62.98;28.62;;;;;;;-1.37;74.31;102238.89;1845105;76;27488;-74
2022/01/12 10:16:17;;;;;;;59.38;29.02;;;;;;;-1.34;74.41;102243.84;1844858;77;25637;-74
2022/01/12 10:18:47;;;;;;;58.78;27.25;;;;;;;-1.32;74.59;102228.03;1845169;76;25424;-74
2022/01/12 10:21:33;;;;;;;56.83;26.55;;;;;;;-1.24;74.56;102230.27;1844925;77;26197;-74
2022/01/12 10:24:05;;;;;;;53.52;27.55;;;;;;;-1.17;74.14;102221.92;1844866;77;25566;-73
2022/01/12 10:26:39;;;;;;;59.83;28.32;;;;;;;-1.17;73.95;102213.44;1845029;76;27311;-74
2022/01/12 10:29:10;;;;;;;60.70;28.17;;;;;;;-1.15;73.89;102222.55;1844795;77;25786;-74
2022/01/12 10:31:53;;;;;;;49.95;25.48;;;;;;;-1.10;74.21;102219.36;1844877;76;25636;-74
2022/01/12 10:34:25;;;;;;;55.55;27.22;;;;;;;-1.03;74.42;102206.47;1845033;77;25606;-74
2022/01/12 10:36:54;;;;;;;57.05;25.85;;;;;;;-0.97;73.85;102216.37;1843385;76;25642;-74
2022/01/12 10:39:26;;;;;;;57.95;27.90;;;;;;;-0.91;73.98;102202.84;1845156;76;27224;-75
2022/01/12 10:42:06;;;;;;;55.03;24.80;;;;;;;-0.81;74.12;102198.56;1844975;77;25503;-73
2022/01/12 10:44:40;;;;;;;52.00;25.40;;;;;;;-0.74;73.80;102204.78;1845103;76;25594;-74
2022/01/12 10:47:19;;;;;;;55.03;24.23;;;;;;;-0.65;73.88;102202.83;1845019;77;25621;-74
2022/01/12 10:49:58;;;;;;;40.55;21.00;;;;;;;-0.54;73.53;102214.31;1843691;77;25662;-73
2022/01/12 10:52:30;;;;;;;30.08;15.43;;;;;;;-0.50;72.62;102221.41;1845079;76;27329;-73
2022/01/12 10:55:08;;;;;;;30.85;15.48;;;;;;;-0.45;72.43;102217.68;1844915;77;25783;-73
2022/01/12 10:57:39;;;;;;;33.28;16.87;;;;;;;-0.43;71.73;102209.81;1845101;77;25625;-76
2022/01/12 11:00:18;;;;;;;29.70;15.15;;;;;;;-0.34;71.97;102211.03;1845122;77;25708;-73
2022/01/12 11:02:50;;;;;;;;;;;;;;;-0.28;71.12;102220.92;1845506;77;25591;-74
2022/01/12 11:05:20;;;;;;;25.88;12.58;;;;;;;-0.25;68.40;102221.37;1845039;77;27426;-74
2022/01/12 11:07:48;;;;;;;20.62;10.60;;;;;;;-0.31;69.32;102204.02;1844930;77;25373;-74
2022/01/12 11:10:15;;;;;;;21.62;11.25;;;;;;;-0.28;69.53;102211.10;1844972;76;25594;-74
2022/01/12 11:12:42;;;;;;;21.33;11.05;;;;;;;-0.14;69.88;102209.39;1806728;77;25680;-74
2022/01/12 11:15:13;;;;;;;25.77;11.70;;;;;;;0.01;68.98;102209.84;1845027;77;25675;-74
2022/01/12 11:17:42;;;;;;;28.20;12.07;;;;;;;0.06;68.75;102200.27;1845099;77;27334;-74
2022/01/12 11:20:17;;;;;;;31.50;14.05;;;;;;;0.11;68.60;102210.34;1845263;76;26330;-74
2022/01/12 11:23:12;;;;;;;36.75;19.07;;;;;;;0.22;69.19;102211.12;1833242;77;25621;-74
2022/01/12 11:25:43;;;;;;;23.05;11.40;;;;;;;0.33;69.09;102212.46;1845076;77;26174;-72
2022/01/12 11:28:15;;;;;;;23.22;11.30;;;;;;;0.33;67.15;102197.81;1845268;77;26028;-73
2022/01/12 11:30:56;;;;;;;20.85;10.60;;;;;;;0.36;64.46;102206.23;1845123;77;28054;-74
2022/01/12 11:33:34;;;;;;;20.25;11.10;;;;;;;0.40;66.13;102192.55;1844859;76;25696;-72
2022/01/12 11:36:21;;;;;;;23.18;12.07;;;;;;;0.52;67.44;102193.13;1845194;76;25322;-74
2022/01/12 11:39:02;;;;;;;20.80;11.40;;;;;;;1.00;69.10;102192.87;1845050;77;25654;-73
2022/01/12 11:41:33;;;;;;;23.80;11.12;;;;;;;1.55;68.95;102191.51;1845060;77;25654;-73
2022/01/12 11:44:20;;;;;;;21.30;10.45;;;;;;;2.00;66.33;102184.59;1845049;77;28076;-74
2022/01/12 11:46:50;;;;;;;18.77;10.20;;;;;;;2.11;65.28;102188.52;1861758;76;25453;-74
2022/01/12 11:49:44;;;;;;;19.60;10.90;;;;;;;2.08;63.69;102181.41;1844893;77;25673;-73
2022/01/12 11:52:26;;;;;;;19.57;10.05;;;;;;;2.01;63.04;102184.06;1845097;76;26095;-73
2022/01/12 11:55:16;;;;;;;20.72;11.30;;;;;;;1.80;62.35;102191.24;1861794;76;25675;-73
2022/01/12 11:57:50;;;;;;;22.55;10.93;;;;;;;1.67;60.57;102182.72;1842947;77;27176;-73
2022/01/12 12:00:30;;;;;;;21.12;11.55;;;;;;;1.40;60.38;102169.03;1844994;77;25573;-73
2022/01/12 12:02:54;;;;;;;22.32;10.68;;;;;;;1.15;60.85;102161.56;1845458;76;25525;-73
2022/01/12 12:05:28;;;;;;;17.02;10.72;;;;;;;1.08;60.81;102161.54;1845135;76;26147;-73
2022/01/12 12:08:02;;;;;;;23.60;11.18;;;;;;;1.01;60.87;102148.70;1844549;76;25368;-73
2022/01/12 12:10:31;;;;;;;20.25;10.75;;;;;;;0.88;60.15;102144.13;1842728;77;27437;-73
2022/01/12 12:12:59;;;;;;;20.80;11.80;;;;;;;0.78;61.45;102146.86;1844917;76;25701;-73
2022/01/12 12:15:26;;;;;;;18.12;10.40;;;;;;;0.71;59.49;102150.30;1845120;76;25746;-74
2022/01/12 12:17:57;;;;;;;17.30;9.80;;;;;;;0.56;60.65;102149.61;1845077;77;26130;-73
2022/01/12 12:20:25;;;;;;;18.87;9.33;;;;;;;0.50;60.99;102153.89;1845094;77;25600;-73
2022/01/12 12:22:52;;;;;;;21.30;10.82;;;;;;;0.40;60.92;102157.41;1845015;77;27297;-73
2022/01/12 12:25:23;;;;;;;20.65;9.90;;;;;;;0.32;61.31;102156.23;1844885;77;25361;-73
2022/01/12 12:27:54;;;;;;;19.75;10.50;;;;;;;0.28;60.96;102154.47;1845055;77;25605;-72
2022/01/12 12:30:23;;;;;;;22.10;11.12;;;;;;;0.20;59.47;102149.80;1842596;76;25750;-72
2022/01/12 12:32:55;;;;;;;24.50;10.78;;;;;;;0.13;60.81;102148.42;1845170;76;25439;-72